createdAt,value
2018-03-06T00:01:10.275Z,147.02
2018-03-06T00:03:37.732Z,148.60
2018-03-06T00:06:05.191Z,123.97
2018-03-06T00:08:32.649Z,147.40
2018-03-06T00:11:00.096Z,125.15
2018-03-06T00:13:27.551Z,118.15
2018-03-06T00:15:55.780Z,149.57
2018-03-06T00:18:24.045Z,122.37
2018-03-06T00:20:51.495Z,123.18
2018-03-06T00:23:18.955Z,122.22
2018-03-06T00:25:46.455Z,117.50
2018-03-06T00:28:13.902Z,118.25
2018-03-06T00:30:41.354Z,118.97
2018-03-06T00:33:08.827Z,116.53
2018-03-06T00:35:36.272Z,116.57
2018-03-06T00:38:03.727Z,119.85
2018-03-06T00:40:31.180Z,144.00
2018-03-06T00:42:59.592Z,144.07
2018-03-06T00:45:27.061Z,144.18
2018-03-06T00:47:54.519Z,116.78
2018-03-06T00:50:21.972Z,143.82
2018-03-06T00:52:49.418Z,103.75
2018-03-06T00:55:16.881Z,119.70
2018-03-06T00:57:44.324Z,144.13
2018-03-06T01:00:12.575Z,144.00
2018-03-06T01:02:40.796Z,156.45
2018-03-06T01:05:08.267Z,144.62
2018-03-06T01:07:35.719Z,144.75
2018-03-06T01:10:03.186Z,122.07
2018-03-06T01:12:30.660Z,118.75
2018-03-06T01:14:58.118Z,117.78
2018-03-06T01:17:25.566Z,147.43
2018-03-06T01:19:53.020Z,147.62
2018-03-06T01:22:20.488Z,116.50
2018-03-06T01:24:47.955Z,121.47
2018-03-06T01:27:15.411Z,122.10
2018-03-06T01:29:42.906Z,120.55
2018-03-06T01:32:11.213Z,120.57
2018-03-06T01:34:38.678Z,120.80
2018-03-06T01:37:06.122Z,117.80
2018-03-06T01:39:33.584Z,121.35
2018-03-06T01:42:01.060Z,114.00
2018-03-06T01:44:28.509Z,122.50
2018-03-06T01:46:55.963Z,116.05
2018-03-06T01:49:23.465Z,115.37
2018-03-06T01:51:57.548Z,117.07
2018-03-06T01:54:25.010Z,120.85
2018-03-06T01:56:52.468Z,107.85
2018-03-06T01:59:19.933Z,121.32
2018-03-06T02:01:47.376Z,118.85
2018-03-06T02:04:14.832Z,119.53
2018-03-06T02:06:43.059Z,113.62
2018-03-06T02:09:10.516Z,116.47
2018-03-06T02:11:37.984Z,105.03
2018-03-06T02:14:05.428Z,113.75
2018-03-06T02:16:32.885Z,144.23
2018-03-06T02:19:00.336Z,119.60
2018-03-06T02:21:28.563Z,117.65
2018-03-06T02:23:56.022Z,114.57
2018-03-06T02:26:23.484Z,120.80
2018-03-06T02:28:50.942Z,143.27
2018-03-06T02:31:18.398Z,120.00
2018-03-06T02:33:45.859Z,116.03
2018-03-06T02:36:13.338Z,117.13
2018-03-06T02:38:41.555Z,119.90
2018-03-06T02:41:09.015Z,113.40
2018-03-06T02:43:36.471Z,119.85
2018-03-06T02:46:10.657Z,115.18
2018-03-06T02:48:38.876Z,122.97
2018-03-06T02:51:06.338Z,119.30
2018-03-06T02:53:33.802Z,120.68
2018-03-06T02:56:01.259Z,120.10
2018-03-06T02:58:28.723Z,118.87
2018-03-06T03:00:56.179Z,117.13
2018-03-06T03:03:23.643Z,116.40
2018-03-06T03:05:51.112Z,146.05
2018-03-06T03:08:18.564Z,117.35
2018-03-06T03:10:46.044Z,141.32
2018-03-06T03:13:14.263Z,115.65
2018-03-06T03:15:41.714Z,118.78
2018-03-06T03:18:09.191Z,116.18
2018-03-06T03:20:36.645Z,115.03
2018-03-06T03:23:04.889Z,119.43
2018-03-06T03:25:32.352Z,101.28
2018-03-06T03:27:59.811Z,119.95
2018-03-06T03:30:27.268Z,119.28
2018-03-06T03:32:54.732Z,119.45
2018-03-06T03:35:22.195Z,117.07
2018-03-06T03:37:50.423Z,115.82
2018-03-06T03:40:17.878Z,101.07
2018-03-06T03:42:46.117Z,113.07
2018-03-06T03:45:13.595Z,112.22
2018-03-06T03:47:41.827Z,117.05
2018-03-06T03:50:09.337Z,117.07
2018-03-06T03:52:37.559Z,111.15
2018-03-06T03:55:05.023Z,120.00
2018-03-06T03:57:32.486Z,141.37
2018-03-06T03:59:59.961Z,90.03
2018-03-06T04:02:27.420Z,117.90
2018-03-06T04:04:54.873Z,114.37
2018-03-06T04:07:22.343Z,120.20
2018-03-06T04:09:50.568Z,101.50
2018-03-06T04:12:18.036Z,117.13
2018-03-06T04:14:45.491Z,118.72
2018-03-06T04:17:12.950Z,125.68
2018-03-06T04:19:40.415Z,139.88
2018-03-06T04:22:07.887Z,119.15
2018-03-06T04:24:35.340Z,121.43
2018-03-06T04:27:02.807Z,143.70
2018-03-06T04:29:30.293Z,120.40
2018-03-06T04:31:57.742Z,145.62
2018-03-06T04:34:25.976Z,111.32
2018-03-06T04:36:53.424Z,118.55
2018-03-06T04:39:20.907Z,115.93
2018-03-06T04:41:48.364Z,126.85
2018-03-06T04:44:15.820Z,146.15
2018-03-06T04:46:43.267Z,118.72
2018-03-06T04:49:10.729Z,115.22
2018-03-06T04:51:38.185Z,115.10
2018-03-06T04:54:05.639Z,143.90
2018-03-06T04:56:33.123Z,112.88
2018-03-06T04:59:01.352Z,121.18
2018-03-06T05:01:28.819Z,123.53
2018-03-06T05:03:56.288Z,121.32
2018-03-06T05:06:23.748Z,121.65
2018-03-06T05:08:51.204Z,114.10
2018-03-06T05:11:18.659Z,118.47
2018-03-06T05:13:46.119Z,116.28
2018-03-06T05:16:13.741Z,115.93
2018-03-06T05:18:41.195Z,145.45
2018-03-06T05:21:08.657Z,122.90
2018-03-06T05:23:36.152Z,119.53
2018-03-06T05:26:03.612Z,118.57
2018-03-06T05:28:31.075Z,144.50
2018-03-06T05:30:59.335Z,102.00
2018-03-06T05:33:28.304Z,121.65
2018-03-06T05:35:55.760Z,143.18
2018-03-06T05:38:23.220Z,123.20
2018-03-06T05:40:50.672Z,118.55
2018-03-06T05:43:18.128Z,119.07
2018-03-06T05:45:45.587Z,119.47
2018-03-06T05:48:13.048Z,119.10
2018-03-06T05:50:40.509Z,111.15
2018-03-06T05:53:07.965Z,120.00
2018-03-06T05:55:35.424Z,118.45
2018-03-06T05:58:02.915Z,117.95
2018-03-06T06:00:31.164Z,118.15
2018-03-06T06:02:58.624Z,116.88
2018-03-06T06:05:26.095Z,116.53
2018-03-06T06:07:53.556Z,118.62
2018-03-06T06:10:21.804Z,111.45
2018-03-06T06:12:49.263Z,117.87
2018-03-06T06:15:16.724Z,111.55
2018-03-06T06:17:44.212Z,117.90
2018-03-06T06:20:12.436Z,116.72
2018-03-06T06:22:39.912Z,122.25
2018-03-06T06:25:07.371Z,117.87
2018-03-06T06:27:34.832Z,118.78
2018-03-06T06:30:02.326Z,116.85
2018-03-06T06:32:30.568Z,111.53
2018-03-06T06:34:58.028Z,99.10
2018-03-06T06:37:25.538Z,141.12
2018-03-06T06:39:53.002Z,119.25
2018-03-06T06:42:20.459Z,144.32
2018-03-06T06:44:47.920Z,118.22
2018-03-06T06:47:15.373Z,118.03
2018-03-06T06:49:42.836Z,118.25
2018-03-06T06:52:10.293Z,119.78
2018-03-06T06:54:37.743Z,101.50
2018-03-06T06:57:05.203Z,117.68
2018-03-06T06:59:32.671Z,119.62
2018-03-06T07:02:00.145Z,118.78
2018-03-06T07:04:27.625Z,118.47
2018-03-06T07:06:55.078Z,117.55
2018-03-06T07:09:23.300Z,112.68
2018-03-06T07:11:50.752Z,115.40
2018-03-06T07:14:18.220Z,140.45
2018-03-06T07:16:45.679Z,146.07
2018-03-06T07:19:13.133Z,101.47
2018-03-06T07:21:40.623Z,122.43
2018-03-06T07:24:08.081Z,122.03
2018-03-06T07:26:35.537Z,121.18
2018-03-06T07:29:03.004Z,122.70
2018-03-06T07:31:30.463Z,121.00
2018-03-06T07:33:57.919Z,123.40
2018-03-06T07:36:25.382Z,147.02
2018-03-06T07:38:53.596Z,149.00
2018-03-06T07:41:21.060Z,148.87
2018-03-06T07:43:48.560Z,146.60
2018-03-06T07:46:16.013Z,147.40
2018-03-06T07:48:43.462Z,149.73
2018-03-06T07:51:11.020Z,147.55
2018-03-06T07:53:38.427Z,148.82
2018-03-06T07:56:05.882Z,126.47
2018-03-06T07:58:33.371Z,151.73
2018-03-06T08:01:00.835Z,151.37
2018-03-06T08:03:28.299Z,125.57
2018-03-06T08:05:55.779Z,157.85
2018-03-06T08:08:24.007Z,157.15
2018-03-06T08:10:51.463Z,165.70
2018-03-06T08:13:18.920Z,162.77
2018-03-06T08:15:46.392Z,168.57
2018-03-06T08:18:13.838Z,177.18
2018-03-06T08:20:41.308Z,189.73
2018-03-06T08:23:08.771Z,199.52
2018-03-06T08:25:36.235Z,215.43
2018-03-06T08:28:03.713Z,212.20
2018-03-06T08:30:31.945Z,206.73
2018-03-06T08:32:59.404Z,214.50
2018-03-06T08:35:26.867Z,217.10
2018-03-06T08:37:54.333Z,236.27
2018-03-06T08:40:21.800Z,252.63
2018-03-06T08:42:49.256Z,258.93
2018-03-06T08:45:16.731Z,266.03
2018-03-06T08:47:44.956Z,272.07
2018-03-06T08:50:12.432Z,290.50
2018-03-06T08:52:39.894Z,324.67
2018-03-06T08:55:07.379Z,346.70
2018-03-06T08:57:35.603Z,378.40
2018-03-06T09:00:03.080Z,381.47
2018-03-06T09:02:30.565Z,399.10
2018-03-06T09:04:58.793Z,434.03
2018-03-06T09:07:26.275Z,430.23
2018-03-06T09:09:53.736Z,463.67
2018-03-06T09:12:21.208Z,478.97
2018-03-06T09:14:49.437Z,452.37
2018-03-06T09:17:16.932Z,444.57
2018-03-06T09:19:45.140Z,461.27
2018-03-06T09:22:12.614Z,422.43
2018-03-06T09:24:40.069Z,418.67
2018-03-06T09:27:07.526Z,431.03
2018-03-06T09:29:34.986Z,443.40
2018-03-06T09:32:02.439Z,456.20
2018-03-06T09:34:29.902Z,443.67
2018-03-06T09:36:57.380Z,435.77
2018-03-06T09:39:24.826Z,426.10
2018-03-06T09:41:52.292Z,418.57
2018-03-06T09:44:19.753Z,405.27
2018-03-06T09:46:47.210Z,443.77
2018-03-06T09:49:14.663Z,444.83
2018-03-06T09:51:42.131Z,474.53
2018-03-06T09:54:09.592Z,478.23
2018-03-06T09:56:37.060Z,491.17
2018-03-06T09:59:04.536Z,446.23
2018-03-06T10:01:32.792Z,436.13
2018-03-06T10:04:00.241Z,435.00
2018-03-06T10:06:27.753Z,433.50
2018-03-06T10:08:58.627Z,432.83
2018-03-06T10:11:26.126Z,457.90
2018-03-06T10:13:54.384Z,410.83
2018-03-06T10:16:21.872Z,417.37
2018-03-06T10:18:49.373Z,428.87
2018-03-06T10:21:16.868Z,313.40
2018-03-06T10:23:44.370Z,310.27
2018-03-06T10:26:11.877Z,376.33
2018-03-06T10:28:39.364Z,364.73
2018-03-06T10:31:06.856Z,369.03
2018-03-06T10:33:34.348Z,386.93
2018-03-06T10:36:01.868Z,381.50
2018-03-06T10:38:29.356Z,396.23
2018-03-06T10:40:56.889Z,390.67
2018-03-06T10:43:24.377Z,413.43
2018-03-06T10:45:51.867Z,413.47
2018-03-06T10:48:19.361Z,421.27
2018-03-06T10:50:46.860Z,555.97
2018-03-06T10:53:15.164Z,404.90
2018-03-06T10:55:42.614Z,20.90
2018-03-06T10:58:10.856Z,9.13
2018-03-06T11:00:44.060Z,11.90
2018-03-06T11:03:12.317Z,15.87
2018-03-06T11:05:39.766Z,24.30
2018-03-06T11:08:07.267Z,16.30
2018-03-06T11:10:34.676Z,15.07
2018-03-06T11:13:02.154Z,241.80
2018-03-06T11:15:30.375Z,247.20
2018-03-06T11:17:57.841Z,253.30
2018-03-06T11:20:25.295Z,376.50
2018-03-06T11:22:52.763Z,327.27
2018-03-06T11:25:20.215Z,297.73
2018-03-06T11:27:47.683Z,346.23
2018-03-06T11:30:17.147Z,335.30
2018-03-06T11:32:44.632Z,342.47
2018-03-06T11:35:12.093Z,322.33
2018-03-06T11:37:39.556Z,288.93
2018-03-06T11:40:07.033Z,326.33
2018-03-06T11:42:34.502Z,281.70
2018-03-06T11:45:02.763Z,305.87
2018-03-06T11:47:30.216Z,363.60
2018-03-06T11:49:57.678Z,320.17
2018-03-06T11:52:25.173Z,330.73
2018-03-06T11:54:53.382Z,387.27
2018-03-06T11:57:20.855Z,363.40
2018-03-06T11:59:48.307Z,379.70
2018-03-06T12:02:15.771Z,375.43
2018-03-06T12:04:43.220Z,369.07
2018-03-06T12:07:10.726Z,374.70
2018-03-06T12:09:38.936Z,363.17
2018-03-06T12:12:06.399Z,366.87
2018-03-06T12:14:33.876Z,297.30
2018-03-06T12:17:01.340Z,372.40
2018-03-06T12:19:28.793Z,342.27
2018-03-06T12:21:56.259Z,369.53
2018-03-06T12:24:23.722Z,330.53
2018-03-06T12:26:51.192Z,323.23
2018-03-06T12:29:19.412Z,326.63
2018-03-06T12:31:46.967Z,320.30
2018-03-06T12:34:14.428Z,385.13
2018-03-06T12:36:41.897Z,332.80
2018-03-06T12:39:09.349Z,324.83
2018-03-06T12:41:36.846Z,325.50
2018-03-06T12:44:05.065Z,321.50
2018-03-06T12:46:32.560Z,387.90
2018-03-06T12:49:00.017Z,395.50
2018-03-06T12:51:27.493Z,350.87
2018-03-06T12:53:55.716Z,325.03
2018-03-06T12:56:23.177Z,420.67
2018-03-06T12:58:50.645Z,355.03
2018-03-06T13:01:18.109Z,397.50
2018-03-06T13:03:45.585Z,405.80
2018-03-06T13:06:13.041Z,361.43
2018-03-06T13:08:40.498Z,366.13
2018-03-06T13:11:08.735Z,370.77
2018-03-06T13:13:36.192Z,312.00
2018-03-06T13:16:03.673Z,324.90
2018-03-06T13:18:31.149Z,351.67
2018-03-06T13:20:58.599Z,336.33
2018-03-06T13:23:26.063Z,314.43
2018-03-06T13:25:53.511Z,320.27
2018-03-06T13:28:20.978Z,356.13
2018-03-06T13:30:49.206Z,325.47
2018-03-06T13:33:16.686Z,312.17
2018-03-06T13:35:44.140Z,678.40
2018-03-06T13:38:11.604Z,518.03
2018-03-06T13:40:39.060Z,385.63
2018-03-06T13:43:06.526Z,396.07
2018-03-06T13:45:33.988Z,417.50
2018-03-06T13:48:01.461Z,428.77
2018-03-06T13:50:29.705Z,340.00
2018-03-06T13:52:57.167Z,390.20
2018-03-06T13:55:24.627Z,394.83
2018-03-06T13:57:52.107Z,389.70
2018-03-06T14:00:20.336Z,532.87
2018-03-06T14:02:47.812Z,712.87
2018-03-06T14:05:15.271Z,652.87
2018-03-06T14:07:42.731Z,677.13
2018-03-06T14:10:10.204Z,708.97
2018-03-06T14:12:37.674Z,345.77
2018-03-06T14:15:05.897Z,575.33
2018-03-06T14:17:33.368Z,560.77
2018-03-06T14:20:00.819Z,295.47
2018-03-06T14:22:28.295Z,311.40
2018-03-06T14:24:55.765Z,274.47
2018-03-06T14:27:23.987Z,358.33
2018-03-06T14:29:51.440Z,234.47
2018-03-06T14:32:18.914Z,234.97
2018-03-06T14:34:46.364Z,218.50
2018-03-06T14:37:13.844Z,224.77
2018-03-06T14:39:41.304Z,229.33
2018-03-06T14:42:08.776Z,152.03
2018-03-06T14:44:36.991Z,165.47
2018-03-06T14:47:04.456Z,18.80
2018-03-06T14:49:31.919Z,164.17
2018-03-06T14:51:59.360Z,32.07
2018-03-06T14:54:26.817Z,20.33
2018-03-06T14:56:54.276Z,47.53
2018-03-06T14:59:21.731Z,14.67
2018-03-06T15:01:49.193Z,16.40
2018-03-06T15:04:16.657Z,15.47
2018-03-06T15:06:44.132Z,90.07
2018-03-06T15:09:11.587Z,17.93
2018-03-06T15:11:39.039Z,14.27
2018-03-06T15:14:06.527Z,25.73
2018-03-06T15:16:33.988Z,15.60
2018-03-06T15:19:02.210Z,15.37
2018-03-06T15:21:29.662Z,15.70
2018-03-06T15:23:57.123Z,15.00
2018-03-06T15:26:24.577Z,15.00
2018-03-06T15:28:52.047Z,13.27
2018-03-06T15:31:19.505Z,11.50
2018-03-06T15:33:46.959Z,11.77
2018-03-06T15:36:14.419Z,14.50
2018-03-06T15:38:41.917Z,13.07
2018-03-06T15:41:09.352Z,9.77
2018-03-06T15:43:36.831Z,15.07
2018-03-06T15:46:05.049Z,12.43
2018-03-06T15:48:32.508Z,12.33
2018-03-06T15:50:59.980Z,8.80
2018-03-06T15:53:27.436Z,14.67
2018-03-06T15:55:54.896Z,7.97
2018-03-06T15:58:22.369Z,12.30
2018-03-06T16:00:49.912Z,15.43
2018-03-06T16:03:17.381Z,10.83
2018-03-06T16:05:44.836Z,8.02
2018-03-06T16:08:12.311Z,12.53
2018-03-06T16:10:40.561Z,9.68
2018-03-06T16:13:08.788Z,17.42
2018-03-06T16:15:36.264Z,10.50
2018-03-06T16:18:03.716Z,23.23
2018-03-06T16:20:31.167Z,12.07
2018-03-06T16:22:58.660Z,9.65
2018-03-06T16:25:26.119Z,10.38
2018-03-06T16:27:53.577Z,16.25
2018-03-06T16:30:21.041Z,11.55
2018-03-06T16:32:48.509Z,10.77
2018-03-06T16:35:15.977Z,15.18
2018-03-06T16:37:44.232Z,11.23
2018-03-06T16:40:11.685Z,17.55
2018-03-06T16:42:40.640Z,13.10
2018-03-06T16:45:08.096Z,19.73
2018-03-06T16:47:35.553Z,10.88
2018-03-06T16:50:03.014Z,16.52
2018-03-06T16:52:30.469Z,27.08
2018-03-06T16:54:57.930Z,29.40
2018-03-06T16:57:25.373Z,24.00
2018-03-06T16:59:53.590Z,15.82
2018-03-06T17:02:21.039Z,18.12
2018-03-06T17:04:48.560Z,11.48
2018-03-06T17:07:15.982Z,26.52
2018-03-06T17:09:43.444Z,28.83
2018-03-06T17:12:11.664Z,44.80
2018-03-06T17:14:39.120Z,26.10
2018-03-06T17:17:06.579Z,38.45
2018-03-06T17:19:34.046Z,19.98
2018-03-06T17:22:01.496Z,25.12
2018-03-06T17:24:28.951Z,36.45
2018-03-06T17:26:56.397Z,16.00
2018-03-06T17:29:23.867Z,47.80
2018-03-06T17:31:51.312Z,18.02
2018-03-06T17:34:18.773Z,73.22
2018-03-06T17:36:46.218Z,23.65
2018-03-06T17:39:13.688Z,28.35
2018-03-06T17:41:41.136Z,74.18
2018-03-06T17:44:08.599Z,30.37
2018-03-06T17:46:36.134Z,147.30
2018-03-06T17:49:04.352Z,29.85
2018-03-06T17:51:31.818Z,94.85
2018-03-06T17:53:59.285Z,108.90
2018-03-06T17:56:26.738Z,31.12
2018-03-06T17:58:54.264Z,126.03
2018-03-06T18:01:21.710Z,67.20
2018-03-06T18:03:49.168Z,139.37
2018-03-06T18:06:16.668Z,105.15
2018-03-06T18:08:44.128Z,186.88
2018-03-06T18:11:11.583Z,112.30
2018-03-06T18:13:39.074Z,179.18
2018-03-06T18:16:07.285Z,71.03
2018-03-06T18:18:34.733Z,118.35
2018-03-06T18:21:02.194Z,140.02
2018-03-06T18:23:29.639Z,113.93
2018-03-06T18:25:57.104Z,54.08
2018-03-06T18:28:25.315Z,101.35
2018-03-06T18:30:52.788Z,121.25
2018-03-06T18:33:20.223Z,27.62
2018-03-06T18:35:47.700Z,12.77
2018-03-06T18:38:15.140Z,42.03
2018-03-06T18:40:42.604Z,84.15
2018-03-06T18:43:10.115Z,103.70
2018-03-06T18:45:37.580Z,174.75
2018-03-06T18:48:05.036Z,263.62
2018-03-06T18:50:44.562Z,151.10
2018-03-06T18:53:12.005Z,105.75
2018-03-06T18:55:40.231Z,122.43
2018-03-06T18:58:07.685Z,243.37
2018-03-06T19:14:03.435Z,34.53
2018-03-06T19:16:30.898Z,29.37
2018-03-06T19:18:58.499Z,15.75
2018-03-06T19:21:26.035Z,10.07
2018-03-06T19:23:53.827Z,8.93
2018-03-06T19:26:21.307Z,13.07
2018-03-06T19:28:48.982Z,12.27
2018-03-06T19:31:16.839Z,73.47
2018-03-06T19:33:44.927Z,56.15
2018-03-06T19:36:12.671Z,11.77
2018-03-06T19:38:40.436Z,11.32
2018-03-06T19:41:08.056Z,11.60
2018-03-06T19:43:35.631Z,52.90
2018-03-06T19:46:03.332Z,14.20
2018-03-06T19:48:30.780Z,8.60
2018-03-06T19:50:58.344Z,140.75
2018-03-06T19:53:26.098Z,97.32
2018-03-06T19:55:54.172Z,11.98
2018-03-06T19:58:22.247Z,14.77
2018-03-06T20:00:49.884Z,10.90
2018-03-06T20:03:17.645Z,97.60
2018-03-06T20:05:45.248Z,45.70
2018-03-06T20:08:12.692Z,7.75
2018-03-06T20:10:40.136Z,46.67
2018-03-06T20:13:07.608Z,199.68
2018-03-06T20:15:35.368Z,165.62
2018-03-06T20:18:02.842Z,6.45
2018-03-06T20:20:30.286Z,80.07
2018-03-06T20:22:57.730Z,144.52
2018-03-06T20:25:31.447Z,79.47
2018-03-06T20:27:58.899Z,71.00
2018-03-06T20:30:32.271Z,35.28
2018-03-06T20:33:05.358Z,83.28
2018-03-06T20:35:33.023Z,213.18
2018-03-06T20:38:00.478Z,68.85
2018-03-06T20:40:32.190Z,37.45
2018-03-06T20:43:01.023Z,226.07
2018-03-06T20:45:34.362Z,193.62
2018-03-06T20:48:02.079Z,35.33
2018-03-06T20:50:29.788Z,8.15
2018-03-06T20:53:03.274Z,14.75
2018-03-06T20:55:30.927Z,13.23
2018-03-06T20:57:58.559Z,17.62
2018-03-06T21:00:25.998Z,8.60
2018-03-06T21:02:54.834Z,7.78
2018-03-06T21:05:22.636Z,13.40
2018-03-06T21:07:50.405Z,9.70
2018-03-06T21:10:17.897Z,9.60
2018-03-06T21:12:45.550Z,12.07
2018-03-06T21:15:13.351Z,140.85
2018-03-06T21:17:40.805Z,11.63
2018-03-06T21:20:08.250Z,32.05
2018-03-06T21:22:35.918Z,8.45
2018-03-06T21:25:03.434Z,9.43
2018-03-06T21:27:31.131Z,10.25
2018-03-06T21:29:58.618Z,7.50
2018-03-06T21:32:26.385Z,71.30
2018-03-06T21:34:55.158Z,12.70
2018-03-06T21:37:23.100Z,9.00
2018-03-06T21:39:50.543Z,8.45
2018-03-06T21:42:18.139Z,9.65
2018-03-06T21:44:45.909Z,145.93
2018-03-06T21:47:13.548Z,11.10
2018-03-06T21:49:41.327Z,8.63
2018-03-06T21:52:09.048Z,7.85
2018-03-06T21:54:37.476Z,7.37
2018-03-06T21:57:05.206Z,11.80
2018-03-06T21:59:32.698Z,9.93
2018-03-06T22:02:00.179Z,12.40
2018-03-06T22:04:28.051Z,9.48
2018-03-06T22:06:55.471Z,11.02
2018-03-06T22:09:22.912Z,8.98
2018-03-06T22:11:50.471Z,8.38
2018-03-06T22:14:18.015Z,9.77
2018-03-06T22:16:45.504Z,12.85
2018-03-06T22:19:12.967Z,8.70
2018-03-06T22:21:40.531Z,10.60
2018-03-06T22:24:08.159Z,138.55
2018-03-06T22:26:35.608Z,11.63
2018-03-06T22:29:03.066Z,8.60
2018-03-06T22:31:30.662Z,13.90
2018-03-06T22:33:58.424Z,11.18
2018-03-06T22:36:26.214Z,10.88
2018-03-06T22:38:54.036Z,10.68
2018-03-06T22:41:21.627Z,9.23
2018-03-06T22:43:49.072Z,8.70
2018-03-06T22:46:16.778Z,53.42
2018-03-06T22:48:45.504Z,10.55
2018-03-06T22:51:12.983Z,13.62
2018-03-06T22:53:40.451Z,11.95
2018-03-06T22:56:07.902Z,10.65
2018-03-06T22:58:35.363Z,14.35
2018-03-06T23:01:02.809Z,10.55
2018-03-06T23:03:30.266Z,14.38
2018-03-06T23:05:58.441Z,10.50
2018-03-06T23:08:26.191Z,8.40
2018-03-06T23:10:53.836Z,9.85
2018-03-06T23:13:21.601Z,10.57
2018-03-06T23:15:49.043Z,11.15
2018-03-06T23:18:16.859Z,9.73
2018-03-06T23:20:44.299Z,11.73
2018-03-06T23:23:12.089Z,9.65
2018-03-06T23:25:39.822Z,12.02
2018-03-06T23:28:07.559Z,9.27
2018-03-06T23:30:34.991Z,10.82
2018-03-06T23:33:02.440Z,12.65
2018-03-06T23:35:30.126Z,11.45
2018-03-06T23:37:57.842Z,14.23
2018-03-06T23:40:25.467Z,9.93
2018-03-06T23:42:53.064Z,9.25
2018-03-06T23:45:20.827Z,10.57
2018-03-06T23:47:48.586Z,10.20
2018-03-06T23:50:16.227Z,10.65
2018-03-06T23:52:43.992Z,10.60
2018-03-06T23:55:11.515Z,9.55
2018-03-06T23:57:39.607Z,13.05
